sensor_id;sensor_type;location;lat;lon;timestamp;P1;durP1;ratioP1;P2;durP2;ratioP2
20294;SDS011;10306;52.128;5.208;2022-12-07T00:02:09;5.20;;;4.50;;
20294;SDS011;10306;52.128;5.208;2022-12-07T00:04:35;5.67;;;3.80;;
20294;SDS011;10306;52.128;5.208;2022-12-07T00:07:00;4.97;;;4.10;;
20294;SDS011;10306;52.128;5.208;2022-12-07T00:09:27;4.80;;;4.30;;
20294;SDS011;10306;52.128;5.208;2022-12-07T00:11:53;6.87;;;4.30;;
20294;SDS011;10306;52.128;5.208;2022-12-07T00:14:19;4.70;;;3.90;;
20294;SDS011;10306;52.128;5.208;2022-12-07T00:16:46;5.47;;;3.43;;
20294;SDS011;10306;52.128;5.208;2022-12-07T00:19:14;3.83;;;3.30;;
20294;SDS011;10306;52.128;5.208;2022-12-07T00:21:40;4.93;;;3.60;;
20294;SDS011;10306;52.128;5.208;2022-12-07T00:24:06;4.23;;;3.67;;
20294;SDS011;10306;52.128;5.208;2022-12-07T00:26:36;5.27;;;3.13;;
20294;SDS011;10306;52.128;5.208;2022-12-07T00:29:04;5.37;;;3.27;;
20294;SDS011;10306;52.128;5.208;2022-12-07T00:31:34;7.07;;;3.90;;
20294;SDS011;10306;52.128;5.208;2022-12-07T00:34:03;4.67;;;3.77;;
20294;SDS011;10306;52.128;5.208;2022-12-07T00:36:29;3.60;;;3.30;;
20294;SDS011;10306;52.128;5.208;2022-12-07T00:38:57;7.50;;;3.67;;
20294;SDS011;10306;52.128;5.208;2022-12-07T00:41:23;5.67;;;3.13;;
20294;SDS011;10306;52.128;5.208;2022-12-07T00:43:50;5.30;;;3.43;;
20294;SDS011;10306;52.128;5.208;2022-12-07T00:46:17;3.40;;;3.20;;
20294;SDS011;10306;52.128;5.208;2022-12-07T00:48:43;3.40;;;3.10;;
20294;SDS011;10306;52.128;5.208;2022-12-07T00:51:09;3.20;;;2.80;;
20294;SDS011;10306;52.128;5.208;2022-12-07T00:53:37;3.33;;;3.13;;
20294;SDS011;10306;52.128;5.208;2022-12-07T00:56:07;5.70;;;3.03;;
20294;SDS011;10306;52.128;5.208;2022-12-07T00:58:33;5.57;;;3.03;;
20294;SDS011;10306;52.128;5.208;2022-12-07T01:01:02;4.07;;;3.30;;
20294;SDS011;10306;52.128;5.208;2022-12-07T01:03:28;5.03;;;3.33;;
20294;SDS011;10306;52.128;5.208;2022-12-07T01:05:55;4.70;;;3.30;;
20294;SDS011;10306;52.128;5.208;2022-12-07T01:08:21;6.07;;;3.20;;
20294;SDS011;10306;52.128;5.208;2022-12-07T01:10:48;7.93;;;3.40;;
20294;SDS011;10306;52.128;5.208;2022-12-07T01:13:14;10.20;;;3.33;;
20294;SDS011;10306;52.128;5.208;2022-12-07T01:15:44;3.83;;;3.20;;
20294;SDS011;10306;52.128;5.208;2022-12-07T01:18:10;7.97;;;3.37;;
20294;SDS011;10306;52.128;5.208;2022-12-07T01:20:36;9.47;;;3.57;;
20294;SDS011;10306;52.128;5.208;2022-12-07T01:23:02;5.23;;;3.63;;
20294;SDS011;10306;52.128;5.208;2022-12-07T01:25:28;6.20;;;2.83;;
20294;SDS011;10306;52.128;5.208;2022-12-07T01:27:54;6.80;;;2.93;;
20294;SDS011;10306;52.128;5.208;2022-12-07T01:30:20;3.60;;;3.30;;
20294;SDS011;10306;52.128;5.208;2022-12-07T01:32:46;4.47;;;3.20;;
20294;SDS011;10306;52.128;5.208;2022-12-07T01:35:12;4.03;;;2.80;;
20294;SDS011;10306;52.128;5.208;2022-12-07T01:37:38;2.90;;;2.67;;
20294;SDS011;10306;52.128;5.208;2022-12-07T01:40:05;2.80;;;2.60;;
20294;SDS011;10306;52.128;5.208;2022-12-07T01:42:32;3.03;;;2.83;;
20294;SDS011;10306;52.128;5.208;2022-12-07T01:47:56;4.93;;;2.87;;
20294;SDS011;10306;52.128;5.208;2022-12-07T01:50:24;5.30;;;2.77;;
20294;SDS011;10306;52.128;5.208;2022-12-07T01:52:51;2.80;;;2.60;;
20294;SDS011;10306;52.128;5.208;2022-12-07T01:55:18;3.30;;;3.00;;
20294;SDS011;10306;52.128;5.208;2022-12-07T01:57:45;4.33;;;2.70;;
20294;SDS011;10306;52.128;5.208;2022-12-07T02:00:13;2.73;;;2.60;;
20294;SDS011;10306;52.128;5.208;2022-12-07T02:05:24;6.03;;;2.53;;
20294;SDS011;10306;52.128;5.208;2022-12-07T02:07:51;5.13;;;2.30;;
20294;SDS011;10306;52.128;5.208;2022-12-07T02:10:25;5.03;;;2.67;;
20294;SDS011;10306;52.128;5.208;2022-12-07T02:12:53;6.03;;;2.90;;
20294;SDS011;10306;52.128;5.208;2022-12-07T02:15:20;6.90;;;2.77;;
20294;SDS011;10306;52.128;5.208;2022-12-07T02:17:52;8.50;;;2.50;;
20294;SDS011;10306;52.128;5.208;2022-12-07T02:20:23;3.47;;;2.77;;
20294;SDS011;10306;52.128;5.208;2022-12-07T02:25:45;4.80;;;2.70;;
20294;SDS011;10306;52.128;5.208;2022-12-07T02:30:59;9.77;;;2.50;;
20294;SDS011;10306;52.128;5.208;2022-12-07T02:33:31;4.20;;;2.37;;
20294;SDS011;10306;52.128;5.208;2022-12-07T02:36:00;3.43;;;2.50;;
20294;SDS011;10306;52.128;5.208;2022-12-07T02:38:33;2.83;;;2.50;;
20294;SDS011;10306;52.128;5.208;2022-12-07T02:41:06;8.13;;;2.60;;
20294;SDS011;10306;52.128;5.208;2022-12-07T02:43:39;3.23;;;2.80;;
20294;SDS011;10306;52.128;5.208;2022-12-07T02:46:08;3.83;;;2.57;;
20294;SDS011;10306;52.128;5.208;2022-12-07T02:51:21;2.47;;;2.17;;
20294;SDS011;10306;52.128;5.208;2022-12-07T02:53:47;4.97;;;2.30;;
20294;SDS011;10306;52.128;5.208;2022-12-07T03:06:49;2.50;;;2.00;;
20294;SDS011;10306;52.128;5.208;2022-12-07T03:09:27;10.10;;;2.00;;
20294;SDS011;10306;52.128;5.208;2022-12-07T03:12:05;3.43;;;1.90;;
20294;SDS011;10306;52.128;5.208;2022-12-07T03:14:34;2.93;;;1.70;;
20294;SDS011;10306;52.128;5.208;2022-12-07T03:17:16;3.47;;;2.10;;
20294;SDS011;10306;52.128;5.208;2022-12-07T03:19:42;3.30;;;2.90;;
20294;SDS011;10306;52.128;5.208;2022-12-07T03:22:10;2.10;;;2.00;;
20294;SDS011;10306;52.128;5.208;2022-12-07T03:24:50;4.97;;;2.27;;
20294;SDS011;10306;52.128;5.208;2022-12-07T03:27:33;5.33;;;2.00;;
20294;SDS011;10306;52.128;5.208;2022-12-07T03:30:04;3.03;;;1.90;;
20294;SDS011;10306;52.128;5.208;2022-12-07T03:32:39;2.03;;;1.80;;
20294;SDS011;10306;52.128;5.208;2022-12-07T03:35:09;3.57;;;2.00;;
20294;SDS011;10306;52.128;5.208;2022-12-07T03:37:40;1.70;;;1.60;;
20294;SDS011;10306;52.128;5.208;2022-12-07T03:42:40;4.47;;;1.90;;
20294;SDS011;10306;52.128;5.208;2022-12-07T03:45:06;1.90;;;1.80;;
20294;SDS011;10306;52.128;5.208;2022-12-07T03:47:33;4.23;;;1.97;;
20294;SDS011;10306;52.128;5.208;2022-12-07T03:52:47;1.90;;;1.80;;
20294;SDS011;10306;52.128;5.208;2022-12-07T03:55:15;5.70;;;1.80;;
20294;SDS011;10306;52.128;5.208;2022-12-07T03:57:44;3.80;;;1.90;;
20294;SDS011;10306;52.128;5.208;2022-12-07T04:00:12;2.97;;;1.73;;
20294;SDS011;10306;52.128;5.208;2022-12-07T04:02:38;1.93;;;1.77;;
20294;SDS011;10306;52.128;5.208;2022-12-07T04:05:04;2.57;;;1.73;;
20294;SDS011;10306;52.128;5.208;2022-12-07T04:07:31;2.73;;;1.70;;
20294;SDS011;10306;52.128;5.208;2022-12-07T04:09:57;5.37;;;1.70;;
20294;SDS011;10306;52.128;5.208;2022-12-07T04:12:23;2.77;;;1.73;;
20294;SDS011;10306;52.128;5.208;2022-12-07T04:14:49;2.67;;;1.70;;
20294;SDS011;10306;52.128;5.208;2022-12-07T04:17:15;3.30;;;1.90;;
20294;SDS011;10306;52.128;5.208;2022-12-07T04:19:41;3.27;;;2.03;;
20294;SDS011;10306;52.128;5.208;2022-12-07T04:22:07;2.40;;;2.30;;
20294;SDS011;10306;52.128;5.208;2022-12-07T04:24:33;1.80;;;1.70;;
20294;SDS011;10306;52.128;5.208;2022-12-07T04:26:59;2.20;;;2.00;;
20294;SDS011;10306;52.128;5.208;2022-12-07T04:29:25;2.93;;;1.90;;
20294;SDS011;10306;52.128;5.208;2022-12-07T04:31:52;3.63;;;1.60;;
20294;SDS011;10306;52.128;5.208;2022-12-07T04:34:18;2.60;;;1.70;;
20294;SDS011;10306;52.128;5.208;2022-12-07T04:36:45;2.60;;;1.50;;
20294;SDS011;10306;52.128;5.208;2022-12-07T04:39:25;1.50;;;1.40;;
20294;SDS011;10306;52.128;5.208;2022-12-07T04:41:52;1.97;;;1.37;;
20294;SDS011;10306;52.128;5.208;2022-12-07T04:44:18;1.17;;;1.17;;
20294;SDS011;10306;52.128;5.208;2022-12-07T04:46:44;1.70;;;1.30;;
20294;SDS011;10306;52.128;5.208;2022-12-07T04:49:11;3.63;;;1.60;;
20294;SDS011;10306;52.128;5.208;2022-12-07T04:51:37;6.13;;;1.60;;
20294;SDS011;10306;52.128;5.208;2022-12-07T04:54:03;3.57;;;1.23;;
20294;SDS011;10306;52.128;5.208;2022-12-07T04:56:29;3.40;;;1.53;;
20294;SDS011;10306;52.128;5.208;2022-12-07T04:58:55;1.70;;;1.43;;
20294;SDS011;10306;52.128;5.208;2022-12-07T05:01:22;2.23;;;1.50;;
20294;SDS011;10306;52.128;5.208;2022-12-07T05:03:48;2.80;;;1.70;;
20294;SDS011;10306;52.128;5.208;2022-12-07T05:06:14;3.03;;;1.90;;
20294;SDS011;10306;52.128;5.208;2022-12-07T05:08:40;5.17;;;1.97;;
20294;SDS011;10306;52.128;5.208;2022-12-07T05:11:07;5.70;;;2.00;;
20294;SDS011;10306;52.128;5.208;2022-12-07T05:13:34;2.93;;;1.80;;
20294;SDS011;10306;52.128;5.208;2022-12-07T05:16:00;3.00;;;1.77;;
20294;SDS011;10306;52.128;5.208;2022-12-07T05:18:26;1.67;;;1.53;;
20294;SDS011;10306;52.128;5.208;2022-12-07T05:20:52;2.90;;;2.00;;
20294;SDS011;10306;52.128;5.208;2022-12-07T05:23:18;4.57;;;1.80;;
20294;SDS011;10306;52.128;5.208;2022-12-07T05:25:44;1.67;;;1.47;;
20294;SDS011;10306;52.128;5.208;2022-12-07T05:28:10;6.13;;;1.70;;
20294;SDS011;10306;52.128;5.208;2022-12-07T05:30:36;1.97;;;1.73;;
20294;SDS011;10306;52.128;5.208;2022-12-07T05:33:02;3.83;;;2.10;;
20294;SDS011;10306;52.128;5.208;2022-12-07T05:35:28;2.60;;;1.60;;
20294;SDS011;10306;52.128;5.208;2022-12-07T05:37:55;1.87;;;1.50;;
20294;SDS011;10306;52.128;5.208;2022-12-07T05:40:22;2.50;;;2.10;;
20294;SDS011;10306;52.128;5.208;2022-12-07T05:42:47;2.33;;;2.13;;
20294;SDS011;10306;52.128;5.208;2022-12-07T05:45:13;4.63;;;2.10;;
20294;SDS011;10306;52.128;5.208;2022-12-07T05:47:39;3.53;;;2.07;;
20294;SDS011;10306;52.128;5.208;2022-12-07T05:50:05;4.33;;;1.97;;
20294;SDS011;10306;52.128;5.208;2022-12-07T05:52:32;1.63;;;1.53;;
20294;SDS011;10306;52.128;5.208;2022-12-07T05:54:58;2.83;;;1.80;;
20294;SDS011;10306;52.128;5.208;2022-12-07T05:57:23;2.30;;;2.03;;
20294;SDS011;10306;52.128;5.208;2022-12-07T05:59:50;1.97;;;1.87;;
20294;SDS011;10306;52.128;5.208;2022-12-07T06:02:16;3.97;;;2.00;;
20294;SDS011;10306;52.128;5.208;2022-12-07T06:04:43;2.30;;;2.17;;
20294;SDS011;10306;52.128;5.208;2022-12-07T06:07:10;2.90;;;2.27;;
20294;SDS011;10306;52.128;5.208;2022-12-07T06:09:37;3.00;;;1.90;;
20294;SDS011;10306;52.128;5.208;2022-12-07T06:12:03;1.80;;;1.70;;
20294;SDS011;10306;52.128;5.208;2022-12-07T06:14:48;5.60;;;2.27;;
20294;SDS011;10306;52.128;5.208;2022-12-07T06:17:14;1.90;;;1.80;;
20294;SDS011;10306;52.128;5.208;2022-12-07T06:19:40;3.47;;;1.80;;
20294;SDS011;10306;52.128;5.208;2022-12-07T06:22:06;1.90;;;1.80;;
20294;SDS011;10306;52.128;5.208;2022-12-07T06:24:34;3.33;;;1.50;;
20294;SDS011;10306;52.128;5.208;2022-12-07T06:27:00;1.97;;;1.83;;
20294;SDS011;10306;52.128;5.208;2022-12-07T06:29:26;3.33;;;1.70;;
20294;SDS011;10306;52.128;5.208;2022-12-07T06:31:52;2.90;;;1.87;;
20294;SDS011;10306;52.128;5.208;2022-12-07T06:34:19;2.80;;;1.80;;
20294;SDS011;10306;52.128;5.208;2022-12-07T06:36:45;4.27;;;2.00;;
20294;SDS011;10306;52.128;5.208;2022-12-07T06:39:16;4.17;;;2.47;;
20294;SDS011;10306;52.128;5.208;2022-12-07T06:41:42;5.63;;;1.90;;
20294;SDS011;10306;52.128;5.208;2022-12-07T06:44:08;3.90;;;2.20;;
20294;SDS011;10306;52.128;5.208;2022-12-07T06:46:34;2.17;;;1.80;;
20294;SDS011;10306;52.128;5.208;2022-12-07T06:49:00;2.17;;;1.87;;
20294;SDS011;10306;52.128;5.208;2022-12-07T06:51:26;7.57;;;2.53;;
20294;SDS011;10306;52.128;5.208;2022-12-07T06:53:52;9.03;;;1.93;;
20294;SDS011;10306;52.128;5.208;2022-12-07T06:56:18;8.27;;;2.60;;
20294;SDS011;10306;52.128;5.208;2022-12-07T06:58:44;2.47;;;2.30;;
20294;SDS011;10306;52.128;5.208;2022-12-07T07:01:11;6.03;;;1.77;;
20294;SDS011;10306;52.128;5.208;2022-12-07T07:03:38;5.13;;;2.20;;
20294;SDS011;10306;52.128;5.208;2022-12-07T07:06:05;1.87;;;1.77;;
20294;SDS011;10306;52.128;5.208;2022-12-07T07:08:31;2.30;;;2.10;;
20294;SDS011;10306;52.128;5.208;2022-12-07T07:10:57;3.20;;;2.27;;
20294;SDS011;10306;52.128;5.208;2022-12-07T07:13:23;4.53;;;2.77;;
20294;SDS011;10306;52.128;5.208;2022-12-07T07:15:49;3.80;;;2.63;;
20294;SDS011;10306;52.128;5.208;2022-12-07T07:18:15;3.90;;;2.50;;
20294;SDS011;10306;52.128;5.208;2022-12-07T07:20:41;2.50;;;2.30;;
20294;SDS011;10306;52.128;5.208;2022-12-07T07:23:07;5.10;;;2.47;;
20294;SDS011;10306;52.128;5.208;2022-12-07T07:25:33;2.97;;;2.20;;
20294;SDS011;10306;52.128;5.208;2022-12-07T07:27:59;6.53;;;2.43;;
20294;SDS011;10306;52.128;5.208;2022-12-07T07:30:25;2.47;;;2.37;;
20294;SDS011;10306;52.128;5.208;2022-12-07T07:32:51;3.17;;;2.23;;
20294;SDS011;10306;52.128;5.208;2022-12-07T07:35:21;6.00;;;2.50;;
20294;SDS011;10306;52.128;5.208;2022-12-07T07:37:47;6.03;;;2.40;;
20294;SDS011;10306;52.128;5.208;2022-12-07T07:40:13;5.00;;;3.20;;
20294;SDS011;10306;52.128;5.208;2022-12-07T07:42:39;2.80;;;2.57;;
20294;SDS011;10306;52.128;5.208;2022-12-07T07:45:05;3.60;;;2.47;;
20294;SDS011;10306;52.128;5.208;2022-12-07T07:47:31;3.83;;;2.40;;
20294;SDS011;10306;52.128;5.208;2022-12-07T07:49:57;2.50;;;2.30;;
20294;SDS011;10306;52.128;5.208;2022-12-07T07:52:23;2.27;;;2.10;;
20294;SDS011;10306;52.128;5.208;2022-12-07T07:54:49;3.67;;;2.07;;
20294;SDS011;10306;52.128;5.208;2022-12-07T07:57:16;4.17;;;2.03;;
20294;SDS011;10306;52.128;5.208;2022-12-07T07:59:42;2.23;;;2.03;;
20294;SDS011;10306;52.128;5.208;2022-12-07T08:02:15;2.70;;;2.03;;
20294;SDS011;10306;52.128;5.208;2022-12-07T08:04:41;4.60;;;2.30;;
20294;SDS011;10306;52.128;5.208;2022-12-07T08:07:07;6.83;;;2.50;;
20294;SDS011;10306;52.128;5.208;2022-12-07T08:09:33;10.03;;;2.70;;
20294;SDS011;10306;52.128;5.208;2022-12-07T08:11:59;3.07;;;2.50;;
20294;SDS011;10306;52.128;5.208;2022-12-07T08:14:25;2.50;;;2.30;;
20294;SDS011;10306;52.128;5.208;2022-12-07T08:16:52;3.53;;;2.00;;
20294;SDS011;10306;52.128;5.208;2022-12-07T08:19:18;5.70;;;2.63;;
20294;SDS011;10306;52.128;5.208;2022-12-07T08:21:44;2.50;;;2.30;;
20294;SDS011;10306;52.128;5.208;2022-12-07T08:24:10;7.40;;;2.87;;
20294;SDS011;10306;52.128;5.208;2022-12-07T08:26:36;5.20;;;2.70;;
20294;SDS011;10306;52.128;5.208;2022-12-07T08:29:02;2.53;;;2.23;;
20294;SDS011;10306;52.128;5.208;2022-12-07T08:31:28;3.07;;;2.40;;
20294;SDS011;10306;52.128;5.208;2022-12-07T08:33:54;4.57;;;3.13;;
20294;SDS011;10306;52.128;5.208;2022-12-07T08:36:20;5.93;;;2.67;;
20294;SDS011;10306;52.128;5.208;2022-12-07T08:38:47;8.73;;;2.10;;
20294;SDS011;10306;52.128;5.208;2022-12-07T08:41:13;2.77;;;2.17;;
20294;SDS011;10306;52.128;5.208;2022-12-07T08:43:40;3.10;;;2.03;;
20294;SDS011;10306;52.128;5.208;2022-12-07T08:46:08;3.77;;;1.80;;
20294;SDS011;10306;52.128;5.208;2022-12-07T08:48:36;3.83;;;2.30;;
20294;SDS011;10306;52.128;5.208;2022-12-07T08:51:03;3.10;;;2.17;;
20294;SDS011;10306;52.128;5.208;2022-12-07T08:53:29;2.83;;;2.53;;
20294;SDS011;10306;52.128;5.208;2022-12-07T08:55:55;1.83;;;1.73;;
20294;SDS011;10306;52.128;5.208;2022-12-07T08:58:22;7.97;;;2.23;;
20294;SDS011;10306;52.128;5.208;2022-12-07T09:00:48;7.77;;;2.00;;
20294;SDS011;10306;52.128;5.208;2022-12-07T09:03:15;2.10;;;1.67;;
20294;SDS011;10306;52.128;5.208;2022-12-07T09:05:41;2.50;;;1.77;;
20294;SDS011;10306;52.128;5.208;2022-12-07T09:08:07;5.33;;;1.70;;
20294;SDS011;10306;52.128;5.208;2022-12-07T09:10:33;6.00;;;2.10;;
20294;SDS011;10306;52.128;5.208;2022-12-07T09:12:59;4.63;;;2.10;;
20294;SDS011;10306;52.128;5.208;2022-12-07T09:15:26;5.90;;;2.17;;
20294;SDS011;10306;52.128;5.208;2022-12-07T09:17:52;8.03;;;2.40;;
20294;SDS011;10306;52.128;5.208;2022-12-07T09:20:18;4.50;;;2.03;;
20294;SDS011;10306;52.128;5.208;2022-12-07T09:22:44;6.60;;;1.93;;
20294;SDS011;10306;52.128;5.208;2022-12-07T09:25:10;1.90;;;1.70;;
20294;SDS011;10306;52.128;5.208;2022-12-07T09:27:36;1.83;;;1.60;;
20294;SDS011;10306;52.128;5.208;2022-12-07T09:30:02;2.93;;;1.90;;
20294;SDS011;10306;52.128;5.208;2022-12-07T09:32:28;4.10;;;1.70;;
20294;SDS011;10306;52.128;5.208;2022-12-07T09:34:54;2.03;;;1.67;;
20294;SDS011;10306;52.128;5.208;2022-12-07T09:37:20;3.60;;;1.47;;
20294;SDS011;10306;52.128;5.208;2022-12-07T09:39:46;3.40;;;1.70;;
20294;SDS011;10306;52.128;5.208;2022-12-07T09:42:28;2.37;;;1.90;;
20294;SDS011;10306;52.128;5.208;2022-12-07T09:44:55;5.20;;;1.90;;
20294;SDS011;10306;52.128;5.208;2022-12-07T09:47:21;2.03;;;1.77;;
20294;SDS011;10306;52.128;5.208;2022-12-07T09:49:47;4.03;;;1.67;;
20294;SDS011;10306;52.128;5.208;2022-12-07T09:52:29;2.13;;;1.70;;
20294;SDS011;10306;52.128;5.208;2022-12-07T09:54:55;3.77;;;1.67;;
20294;SDS011;10306;52.128;5.208;2022-12-07T09:57:25;1.53;;;1.40;;
20294;SDS011;10306;52.128;5.208;2022-12-07T09:59:54;3.40;;;1.40;;
20294;SDS011;10306;52.128;5.208;2022-12-07T10:02:25;2.70;;;1.50;;
20294;SDS011;10306;52.128;5.208;2022-12-07T10:04:52;3.70;;;1.27;;
20294;SDS011;10306;52.128;5.208;2022-12-07T10:07:18;3.90;;;1.60;;
20294;SDS011;10306;52.128;5.208;2022-12-07T10:09:44;7.40;;;1.80;;
20294;SDS011;10306;52.128;5.208;2022-12-07T10:12:11;3.30;;;1.50;;
20294;SDS011;10306;52.128;5.208;2022-12-07T10:14:39;5.47;;;1.87;;
20294;SDS011;10306;52.128;5.208;2022-12-07T10:19:50;1.53;;;1.43;;
20294;SDS011;10306;52.128;5.208;2022-12-07T10:22:16;2.97;;;1.83;;
20294;SDS011;10306;52.128;5.208;2022-12-07T10:24:43;4.83;;;1.37;;
20294;SDS011;10306;52.128;5.208;2022-12-07T10:27:17;3.50;;;1.50;;
20294;SDS011;10306;52.128;5.208;2022-12-07T10:29:47;1.30;;;1.20;;
20294;SDS011;10306;52.128;5.208;2022-12-07T10:34:42;3.40;;;1.33;;
20294;SDS011;10306;52.128;5.208;2022-12-07T10:39:53;1.00;;;0.90;;
20294;SDS011;10306;52.128;5.208;2022-12-07T10:42:23;3.80;;;1.30;;
20294;SDS011;10306;52.128;5.208;2022-12-07T10:45:05;5.63;;;1.47;;
20294;SDS011;10306;52.128;5.208;2022-12-07T10:47:34;3.03;;;1.20;;
20294;SDS011;10306;52.128;5.208;2022-12-07T10:57:36;4.13;;;1.13;;
20294;SDS011;10306;52.128;5.208;2022-12-07T11:18:26;0.60;;;0.60;;
20294;SDS011;10306;52.128;5.208;2022-12-07T11:23:59;1.60;;;0.60;;
20294;SDS011;10306;52.128;5.208;2022-12-07T11:26:41;1.53;;;0.93;;
20294;SDS011;10306;52.128;5.208;2022-12-07T11:31:55;0.70;;;0.70;;
20294;SDS011;10306;52.128;5.208;2022-12-07T11:36:51;2.27;;;0.73;;
20294;SDS011;10306;52.128;5.208;2022-12-07T11:41:44;1.00;;;0.83;;
20294;SDS011;10306;52.128;5.208;2022-12-07T11:44:17;3.13;;;0.80;;
20294;SDS011;10306;52.128;5.208;2022-12-07T11:46:50;1.07;;;0.97;;
20294;SDS011;10306;52.128;5.208;2022-12-07T11:52:02;2.63;;;1.10;;
20294;SDS011;10306;52.128;5.208;2022-12-07T11:54:30;1.20;;;0.90;;
20294;SDS011;10306;52.128;5.208;2022-12-07T11:56:59;1.63;;;1.03;;
20294;SDS011;10306;52.128;5.208;2022-12-07T11:59:38;1.47;;;0.90;;
20294;SDS011;10306;52.128;5.208;2022-12-07T12:02:13;0.90;;;0.90;;
20294;SDS011;10306;52.128;5.208;2022-12-07T12:07:24;0.90;;;0.90;;
20294;SDS011;10306;52.128;5.208;2022-12-07T12:09:53;2.10;;;1.17;;
20294;SDS011;10306;52.128;5.208;2022-12-07T12:19:41;3.43;;;1.37;;
20294;SDS011;10306;52.128;5.208;2022-12-07T12:22:15;2.70;;;1.03;;
20294;SDS011;10306;52.128;5.208;2022-12-07T12:24:43;2.33;;;1.20;;
20294;SDS011;10306;52.128;5.208;2022-12-07T12:27:15;1.50;;;1.03;;
20294;SDS011;10306;52.128;5.208;2022-12-07T12:29:41;5.67;;;1.03;;
20294;SDS011;10306;52.128;5.208;2022-12-07T12:32:16;2.87;;;1.20;;
20294;SDS011;10306;52.128;5.208;2022-12-07T12:42:50;1.70;;;0.90;;
20294;SDS011;10306;52.128;5.208;2022-12-07T12:45:29;0.90;;;0.80;;
20294;SDS011;10306;52.128;5.208;2022-12-07T12:48:02;3.33;;;0.97;;
20294;SDS011;10306;52.128;5.208;2022-12-07T12:50:32;4.33;;;1.20;;
20294;SDS011;10306;52.128;5.208;2022-12-07T12:53:32;3.50;;;0.97;;
20294;SDS011;10306;52.128;5.208;2022-12-07T12:58:30;4.10;;;1.10;;
20294;SDS011;10306;52.128;5.208;2022-12-07T13:03:50;3.03;;;0.90;;
20294;SDS011;10306;52.128;5.208;2022-12-07T13:06:31;2.73;;;0.90;;
20294;SDS011;10306;52.128;5.208;2022-12-07T13:09:00;2.37;;;1.17;;
20294;SDS011;10306;52.128;5.208;2022-12-07T13:11:37;2.63;;;1.00;;
20294;SDS011;10306;52.128;5.208;2022-12-07T13:16:50;3.10;;;0.90;;
20294;SDS011;10306;52.128;5.208;2022-12-07T13:22:01;2.70;;;1.00;;
20294;SDS011;10306;52.128;5.208;2022-12-07T13:24:27;1.13;;;1.03;;
20294;SDS011;10306;52.128;5.208;2022-12-07T13:26:54;0.87;;;0.70;;
20294;SDS011;10306;52.128;5.208;2022-12-07T13:29:21;3.87;;;1.17;;
20294;SDS011;10306;52.128;5.208;2022-12-07T13:31:51;2.83;;;0.77;;
20294;SDS011;10306;52.128;5.208;2022-12-07T13:37:10;2.20;;;0.90;;
20294;SDS011;10306;52.128;5.208;2022-12-07T13:39:44;6.70;;;2.07;;
20294;SDS011;10306;52.128;5.208;2022-12-07T13:44:56;3.33;;;0.90;;
20294;SDS011;10306;52.128;5.208;2022-12-07T13:47:30;1.67;;;0.83;;
20294;SDS011;10306;52.128;5.208;2022-12-07T13:49:57;1.90;;;1.20;;
20294;SDS011;10306;52.128;5.208;2022-12-07T13:52:24;4.23;;;1.07;;
20294;SDS011;10306;52.128;5.208;2022-12-07T13:54:57;1.80;;;1.33;;
20294;SDS011;10306;52.128;5.208;2022-12-07T13:57:27;1.70;;;0.70;;
20294;SDS011;10306;52.128;5.208;2022-12-07T13:59:53;1.67;;;1.10;;
20294;SDS011;10306;52.128;5.208;2022-12-07T14:02:21;4.50;;;0.90;;
20294;SDS011;10306;52.128;5.208;2022-12-07T14:04:48;1.37;;;0.80;;
20294;SDS011;10306;52.128;5.208;2022-12-07T14:07:26;0.70;;;0.70;;
20294;SDS011;10306;52.128;5.208;2022-12-07T14:10:02;2.50;;;0.83;;
20294;SDS011;10306;52.128;5.208;2022-12-07T14:12:30;1.07;;;0.77;;
20294;SDS011;10306;52.128;5.208;2022-12-07T14:14:56;0.73;;;0.73;;
20294;SDS011;10306;52.128;5.208;2022-12-07T14:17:24;2.13;;;0.80;;
20294;SDS011;10306;52.128;5.208;2022-12-07T14:20:00;3.00;;;0.97;;
20294;SDS011;10306;52.128;5.208;2022-12-07T14:22:37;0.73;;;0.73;;
20294;SDS011;10306;52.128;5.208;2022-12-07T14:27:33;3.87;;;0.70;;
20294;SDS011;10306;52.128;5.208;2022-12-07T14:30:00;4.60;;;0.83;;
20294;SDS011;10306;52.128;5.208;2022-12-07T14:32:27;5.47;;;1.40;;
20294;SDS011;10306;52.128;5.208;2022-12-07T14:35:01;1.57;;;1.10;;
20294;SDS011;10306;52.128;5.208;2022-12-07T14:37:27;0.93;;;0.90;;
20294;SDS011;10306;52.128;5.208;2022-12-07T14:39:53;1.13;;;1.00;;
20294;SDS011;10306;52.128;5.208;2022-12-07T14:42:19;1.80;;;0.90;;
20294;SDS011;10306;52.128;5.208;2022-12-07T14:44:45;0.70;;;0.70;;
20294;SDS011;10306;52.128;5.208;2022-12-07T14:47:11;1.17;;;1.07;;
20294;SDS011;10306;52.128;5.208;2022-12-07T14:49:37;1.30;;;0.80;;
20294;SDS011;10306;52.128;5.208;2022-12-07T14:52:04;0.63;;;0.50;;
20294;SDS011;10306;52.128;5.208;2022-12-07T14:54:31;1.10;;;1.00;;
20294;SDS011;10306;52.128;5.208;2022-12-07T14:56:57;0.77;;;0.77;;
20294;SDS011;10306;52.128;5.208;2022-12-07T14:59:23;2.37;;;0.97;;
20294;SDS011;10306;52.128;5.208;2022-12-07T15:01:49;0.67;;;0.67;;
20294;SDS011;10306;52.128;5.208;2022-12-07T15:04:15;3.90;;;0.70;;
20294;SDS011;10306;52.128;5.208;2022-12-07T15:06:41;3.37;;;1.10;;
20294;SDS011;10306;52.128;5.208;2022-12-07T15:09:09;1.30;;;1.20;;
20294;SDS011;10306;52.128;5.208;2022-12-07T15:11:36;1.67;;;1.03;;
20294;SDS011;10306;52.128;5.208;2022-12-07T15:14:02;1.90;;;1.07;;
20294;SDS011;10306;52.128;5.208;2022-12-07T15:16:35;3.40;;;0.80;;
20294;SDS011;10306;52.128;5.208;2022-12-07T15:19:02;1.40;;;0.80;;
20294;SDS011;10306;52.128;5.208;2022-12-07T15:21:28;3.00;;;2.80;;
20294;SDS011;10306;52.128;5.208;2022-12-07T15:23:54;4.20;;;3.80;;
20294;SDS011;10306;52.128;5.208;2022-12-07T15:26:20;4.57;;;3.50;;
20294;SDS011;10306;52.128;5.208;2022-12-07T15:28:46;3.93;;;3.53;;
20294;SDS011;10306;52.128;5.208;2022-12-07T15:31:12;1.17;;;1.17;;
20294;SDS011;10306;52.128;5.208;2022-12-07T15:33:38;2.43;;;1.17;;
20294;SDS011;10306;52.128;5.208;2022-12-07T15:36:04;3.80;;;1.00;;
20294;SDS011;10306;52.128;5.208;2022-12-07T15:38:30;1.20;;;1.10;;
20294;SDS011;10306;52.128;5.208;2022-12-07T15:40:56;4.40;;;1.10;;
20294;SDS011;10306;52.128;5.208;2022-12-07T15:43:22;1.70;;;1.60;;
20294;SDS011;10306;52.128;5.208;2022-12-07T15:46:07;4.23;;;0.93;;
20294;SDS011;10306;52.128;5.208;2022-12-07T15:48:33;2.40;;;1.10;;
20294;SDS011;10306;52.128;5.208;2022-12-07T15:51:06;3.90;;;1.37;;
20294;SDS011;10306;52.128;5.208;2022-12-07T15:53:32;1.23;;;0.87;;
20294;SDS011;10306;52.128;5.208;2022-12-07T15:55:59;1.80;;;1.33;;
20294;SDS011;10306;52.128;5.208;2022-12-07T15:58:25;6.50;;;1.90;;
20294;SDS011;10306;52.128;5.208;2022-12-07T16:00:51;4.13;;;1.70;;
20294;SDS011;10306;52.128;5.208;2022-12-07T16:03:17;2.77;;;1.40;;
20294;SDS011;10306;52.128;5.208;2022-12-07T16:05:48;2.77;;;1.60;;
20294;SDS011;10306;52.128;5.208;2022-12-07T16:08:14;2.17;;;1.47;;
20294;SDS011;10306;52.128;5.208;2022-12-07T16:10:40;6.03;;;1.30;;
20294;SDS011;10306;52.128;5.208;2022-12-07T16:13:10;2.40;;;0.87;;
20294;SDS011;10306;52.128;5.208;2022-12-07T16:15:39;1.93;;;1.20;;
20294;SDS011;10306;52.128;5.208;2022-12-07T16:18:05;2.20;;;0.80;;
20294;SDS011;10306;52.128;5.208;2022-12-07T16:20:31;3.93;;;1.40;;
20294;SDS011;10306;52.128;5.208;2022-12-07T16:22:57;1.13;;;1.00;;
20294;SDS011;10306;52.128;5.208;2022-12-07T16:25:23;1.33;;;1.20;;
20294;SDS011;10306;52.128;5.208;2022-12-07T16:27:50;4.00;;;1.70;;
20294;SDS011;10306;52.128;5.208;2022-12-07T16:30:16;5.20;;;1.30;;
20294;SDS011;10306;52.128;5.208;2022-12-07T16:32:42;1.17;;;1.07;;
20294;SDS011;10306;52.128;5.208;2022-12-07T16:35:08;3.63;;;1.20;;
20294;SDS011;10306;52.128;5.208;2022-12-07T16:37:34;3.60;;;1.50;;
20294;SDS011;10306;52.128;5.208;2022-12-07T16:40:00;1.57;;;1.47;;
20294;SDS011;10306;52.128;5.208;2022-12-07T16:42:28;1.97;;;1.87;;
20294;SDS011;10306;52.128;5.208;2022-12-07T16:44:57;2.03;;;1.93;;
20294;SDS011;10306;52.128;5.208;2022-12-07T16:47:23;4.40;;;1.60;;